sensor_id;sensor_type;location;lat;lon;timestamp;temperature;humidity
5962;DHT22;3007;50.770;0.250;2024-03-02T00:00:52;5.80;99.90
5962;DHT22;3007;50.770;0.250;2024-03-02T00:03:19;5.70;99.90
5962;DHT22;3007;50.770;0.250;2024-03-02T00:05:51;5.60;99.90
5962;DHT22;3007;50.770;0.250;2024-03-02T00:08:23;5.60;99.90
5962;DHT22;3007;50.770;0.250;2024-03-02T00:10:57;5.50;99.90
5962;DHT22;3007;50.770;0.250;2024-03-02T00:13:24;5.50;99.90
5962;DHT22;3007;50.770;0.250;2024-03-02T00:15:52;5.60;99.90
5962;DHT22;3007;50.770;0.250;2024-03-02T00:18:21;5.60;99.90
5962;DHT22;3007;50.770;0.250;2024-03-02T00:20:47;5.70;99.90
5962;DHT22;3007;50.770;0.250;2024-03-02T00:23:18;5.70;99.90
5962;DHT22;3007;50.770;0.250;2024-03-02T00:25:48;5.80;99.90
5962;DHT22;3007;50.770;0.250;2024-03-02T00:28:18;5.80;99.90
5962;DHT22;3007;50.770;0.250;2024-03-02T00:31:01;5.90;99.90
5962;DHT22;3007;50.770;0.250;2024-03-02T00:33:31;5.90;99.90
5962;DHT22;3007;50.770;0.250;2024-03-02T00:35:58;5.90;99.90
5962;DHT22;3007;50.770;0.250;2024-03-02T00:38:27;5.80;99.90
5962;DHT22;3007;50.770;0.250;2024-03-02T00:40:56;5.80;99.90
5962;DHT22;3007;50.770;0.250;2024-03-02T00:43:42;5.80;99.90
5962;DHT22;3007;50.770;0.250;2024-03-02T00:46:11;5.70;99.90
5962;DHT22;3007;50.770;0.250;2024-03-02T00:48:47;5.70;99.90
5962;DHT22;3007;50.770;0.250;2024-03-02T00:51:14;5.80;99.90
5962;DHT22;3007;50.770;0.250;2024-03-02T00:53:42;5.80;99.90
5962;DHT22;3007;50.770;0.250;2024-03-02T00:56:11;5.70;99.90
5962;DHT22;3007;50.770;0.250;2024-03-02T00:58:38;5.70;99.90
5962;DHT22;3007;50.770;0.250;2024-03-02T01:01:05;5.70;99.90
5962;DHT22;3007;50.770;0.250;2024-03-02T01:03:32;5.70;99.90
5962;DHT22;3007;50.770;0.250;2024-03-02T01:05:59;5.80;99.90
5962;DHT22;3007;50.770;0.250;2024-03-02T01:08:26;5.80;99.90
5962;DHT22;3007;50.770;0.250;2024-03-02T01:10:54;5.80;99.90
5962;DHT22;3007;50.770;0.250;2024-03-02T01:13:21;5.90;99.90
5962;DHT22;3007;50.770;0.250;2024-03-02T01:15:49;5.90;99.90
5962;DHT22;3007;50.770;0.250;2024-03-02T01:18:15;5.90;99.90
5962;DHT22;3007;50.770;0.250;2024-03-02T01:20:42;5.90;99.90
5962;DHT22;3007;50.770;0.250;2024-03-02T01:23:09;5.90;99.90
5962;DHT22;3007;50.770;0.250;2024-03-02T01:25:36;5.90;99.90
5962;DHT22;3007;50.770;0.250;2024-03-02T01:28:05;5.90;99.90
5962;DHT22;3007;50.770;0.250;2024-03-02T01:30:32;5.90;99.90
5962;DHT22;3007;50.770;0.250;2024-03-02T01:32:59;5.90;99.90
5962;DHT22;3007;50.770;0.250;2024-03-02T01:35:27;5.90;99.90
5962;DHT22;3007;50.770;0.250;2024-03-02T01:37:54;5.80;99.90
5962;DHT22;3007;50.770;0.250;2024-03-02T01:40:21;5.70;99.90
5962;DHT22;3007;50.770;0.250;2024-03-02T01:42:52;5.70;99.90
5962;DHT22;3007;50.770;0.250;2024-03-02T01:45:20;5.60;99.90
5962;DHT22;3007;50.770;0.250;2024-03-02T01:47:47;5.60;99.90
5962;DHT22;3007;50.770;0.250;2024-03-02T01:50:15;5.60;99.90
5962;DHT22;3007;50.770;0.250;2024-03-02T01:52:42;5.60;99.90
5962;DHT22;3007;50.770;0.250;2024-03-02T01:55:10;5.60;99.90
5962;DHT22;3007;50.770;0.250;2024-03-02T01:57:36;5.70;99.90
5962;DHT22;3007;50.770;0.250;2024-03-02T02:00:04;5.80;99.90
5962;DHT22;3007;50.770;0.250;2024-03-02T02:02:33;5.80;99.90
5962;DHT22;3007;50.770;0.250;2024-03-02T02:05:00;5.90;99.90
5962;DHT22;3007;50.770;0.250;2024-03-02T02:07:26;5.90;99.90
5962;DHT22;3007;50.770;0.250;2024-03-02T02:09:53;6.00;99.90
5962;DHT22;3007;50.770;0.250;2024-03-02T02:12:20;6.00;99.90
5962;DHT22;3007;50.770;0.250;2024-03-02T02:14:47;6.00;99.90
5962;DHT22;3007;50.770;0.250;2024-03-02T02:17:15;6.00;99.90
5962;DHT22;3007;50.770;0.250;2024-03-02T02:19:44;6.00;99.90
5962;DHT22;3007;50.770;0.250;2024-03-02T02:22:12;6.00;99.90
5962;DHT22;3007;50.770;0.250;2024-03-02T02:24:40;6.00;99.90
5962;DHT22;3007;50.770;0.250;2024-03-02T02:27:07;6.00;99.90
5962;DHT22;3007;50.770;0.250;2024-03-02T02:29:34;6.10;99.90
5962;DHT22;3007;50.770;0.250;2024-03-02T02:32:01;6.10;99.90
5962;DHT22;3007;50.770;0.250;2024-03-02T02:34:27;6.10;99.90
5962;DHT22;3007;50.770;0.250;2024-03-02T02:36:54;6.20;99.90
5962;DHT22;3007;50.770;0.250;2024-03-02T02:39:23;6.20;99.90
5962;DHT22;3007;50.770;0.250;2024-03-02T02:41:50;6.20;99.90
5962;DHT22;3007;50.770;0.250;2024-03-02T02:44:16;6.20;99.90
5962;DHT22;3007;50.770;0.250;2024-03-02T02:46:43;6.30;99.90
5962;DHT22;3007;50.770;0.250;2024-03-02T02:49:10;6.30;99.90
5962;DHT22;3007;50.770;0.250;2024-03-02T02:51:37;6.20;99.90
5962;DHT22;3007;50.770;0.250;2024-03-02T02:54:04;6.20;99.90
5962;DHT22;3007;50.770;0.250;2024-03-02T02:56:32;6.20;99.90
5962;DHT22;3007;50.770;0.250;2024-03-02T02:58:59;6.20;99.90
5962;DHT22;3007;50.770;0.250;2024-03-02T03:01:26;6.20;99.90
5962;DHT22;3007;50.770;0.250;2024-03-02T03:03:52;6.20;99.90
5962;DHT22;3007;50.770;0.250;2024-03-02T03:06:19;6.20;99.90
5962;DHT22;3007;50.770;0.250;2024-03-02T03:08:46;6.20;99.90
5962;DHT22;3007;50.770;0.250;2024-03-02T03:11:13;6.20;99.90
5962;DHT22;3007;50.770;0.250;2024-03-02T03:13:41;6.20;99.90
5962;DHT22;3007;50.770;0.250;2024-03-02T03:16:08;6.20;99.90
5962;DHT22;3007;50.770;0.250;2024-03-02T03:18:35;6.20;99.90
5962;DHT22;3007;50.770;0.250;2024-03-02T03:21:02;6.20;99.90
5962;DHT22;3007;50.770;0.250;2024-03-02T03:23:29;6.20;99.90
5962;DHT22;3007;50.770;0.250;2024-03-02T03:25:55;6.20;99.90
5962;DHT22;3007;50.770;0.250;2024-03-02T03:28:22;6.30;99.90
5962;DHT22;3007;50.770;0.250;2024-03-02T03:30:52;6.30;99.90
5962;DHT22;3007;50.770;0.250;2024-03-02T03:33:19;6.30;99.90
5962;DHT22;3007;50.770;0.250;2024-03-02T03:35:45;6.40;99.90
5962;DHT22;3007;50.770;0.250;2024-03-02T03:38:13;6.40;99.90
5962;DHT22;3007;50.770;0.250;2024-03-02T03:40:40;6.50;99.90
5962;DHT22;3007;50.770;0.250;2024-03-02T03:43:07;6.60;99.90
5962;DHT22;3007;50.770;0.250;2024-03-02T03:45:34;6.60;99.90
5962;DHT22;3007;50.770;0.250;2024-03-02T03:48:02;6.60;99.90
5962;DHT22;3007;50.770;0.250;2024-03-02T03:50:29;6.60;99.90
5962;DHT22;3007;50.770;0.250;2024-03-02T03:52:56;6.70;99.90
5962;DHT22;3007;50.770;0.250;2024-03-02T03:55:23;6.70;99.90
5962;DHT22;3007;50.770;0.250;2024-03-02T03:57:50;6.70;99.90
5962;DHT22;3007;50.770;0.250;2024-03-02T04:00:16;6.70;99.90
5962;DHT22;3007;50.770;0.250;2024-03-02T04:02:43;6.70;99.90
5962;DHT22;3007;50.770;0.250;2024-03-02T04:05:11;6.70;99.90
5962;DHT22;3007;50.770;0.250;2024-03-02T04:07:38;6.70;99.90
5962;DHT22;3007;50.770;0.250;2024-03-02T04:10:09;6.70;99.90
5962;DHT22;3007;50.770;0.250;2024-03-02T04:12:36;6.60;99.90
5962;DHT22;3007;50.770;0.250;2024-03-02T04:15:04;6.70;99.90
5962;DHT22;3007;50.770;0.250;2024-03-02T04:17:32;6.70;99.90
5962;DHT22;3007;50.770;0.250;2024-03-02T04:20:04;6.60;99.90
5962;DHT22;3007;50.770;0.250;2024-03-02T04:22:34;6.60;99.90
5962;DHT22;3007;50.770;0.250;2024-03-02T04:25:01;6.60;99.90
5962;DHT22;3007;50.770;0.250;2024-03-02T04:27:30;6.60;99.90
5962;DHT22;3007;50.770;0.250;2024-03-02T04:29:58;6.60;99.90
5962;DHT22;3007;50.770;0.250;2024-03-02T04:32:25;6.60;99.90
5962;DHT22;3007;50.770;0.250;2024-03-02T04:34:52;6.60;99.90
5962;DHT22;3007;50.770;0.250;2024-03-02T04:37:19;6.60;99.90
5962;DHT22;3007;50.770;0.250;2024-03-02T04:39:47;6.60;99.90
5962;DHT22;3007;50.770;0.250;2024-03-02T04:42:14;6.60;99.90
5962;DHT22;3007;50.770;0.250;2024-03-02T04:44:41;6.70;99.90
5962;DHT22;3007;50.770;0.250;2024-03-02T04:47:07;6.60;99.90
5962;DHT22;3007;50.770;0.250;2024-03-02T04:49:34;6.70;99.90
5962;DHT22;3007;50.770;0.250;2024-03-02T04:52:01;6.70;99.90
5962;DHT22;3007;50.770;0.250;2024-03-02T04:54:28;6.70;99.90
5962;DHT22;3007;50.770;0.250;2024-03-02T04:56:57;6.70;99.90
5962;DHT22;3007;50.770;0.250;2024-03-02T04:59:24;6.70;99.90
5962;DHT22;3007;50.770;0.250;2024-03-02T05:01:52;6.70;99.90
5962;DHT22;3007;50.770;0.250;2024-03-02T05:04:18;6.70;99.90
5962;DHT22;3007;50.770;0.250;2024-03-02T05:06:46;6.60;99.90
5962;DHT22;3007;50.770;0.250;2024-03-02T05:09:17;6.60;99.90
5962;DHT22;3007;50.770;0.250;2024-03-02T05:11:44;6.60;99.90
5962;DHT22;3007;50.770;0.250;2024-03-02T05:14:37;6.60;99.90
5962;DHT22;3007;50.770;0.250;2024-03-02T05:17:05;6.70;99.90
5962;DHT22;3007;50.770;0.250;2024-03-02T05:19:31;6.70;99.90
5962;DHT22;3007;50.770;0.250;2024-03-02T05:21:58;6.80;99.90
5962;DHT22;3007;50.770;0.250;2024-03-02T05:24:25;6.70;99.90
5962;DHT22;3007;50.770;0.250;2024-03-02T05:26:53;6.80;99.90
5962;DHT22;3007;50.770;0.250;2024-03-02T05:29:22;6.80;99.90
5962;DHT22;3007;50.770;0.250;2024-03-02T05:31:50;6.80;99.90
5962;DHT22;3007;50.770;0.250;2024-03-02T05:34:17;6.80;99.90
5962;DHT22;3007;50.770;0.250;2024-03-02T05:36:46;6.80;99.90
5962;DHT22;3007;50.770;0.250;2024-03-02T05:39:13;6.80;99.90
5962;DHT22;3007;50.770;0.250;2024-03-02T05:41:41;6.80;99.90
5962;DHT22;3007;50.770;0.250;2024-03-02T05:44:08;6.90;99.90
5962;DHT22;3007;50.770;0.250;2024-03-02T05:46:34;6.90;99.90
5962;DHT22;3007;50.770;0.250;2024-03-02T05:49:02;7.00;99.90
5962;DHT22;3007;50.770;0.250;2024-03-02T05:51:29;6.90;99.90
5962;DHT22;3007;50.770;0.250;2024-03-02T05:53:56;6.90;99.90
5962;DHT22;3007;50.770;0.250;2024-03-02T05:56:23;6.90;99.90
5962;DHT22;3007;50.770;0.250;2024-03-02T05:58:50;6.90;99.90
5962;DHT22;3007;50.770;0.250;2024-03-02T06:01:32;6.90;99.90
5962;DHT22;3007;50.770;0.250;2024-03-02T06:03:59;6.90;99.90
5962;DHT22;3007;50.770;0.250;2024-03-02T06:06:27;6.90;99.90
5962;DHT22;3007;50.770;0.250;2024-03-02T06:08:54;6.90;99.90
5962;DHT22;3007;50.770;0.250;2024-03-02T06:11:20;6.80;99.90
5962;DHT22;3007;50.770;0.250;2024-03-02T06:13:47;6.80;99.90
5962;DHT22;3007;50.770;0.250;2024-03-02T06:16:14;6.80;99.90
5962;DHT22;3007;50.770;0.250;2024-03-02T06:18:41;6.80;99.90
5962;DHT22;3007;50.770;0.250;2024-03-02T06:21:08;6.80;99.90
5962;DHT22;3007;50.770;0.250;2024-03-02T06:23:36;6.80;99.90
5962;DHT22;3007;50.770;0.250;2024-03-02T06:26:03;6.80;99.90
5962;DHT22;3007;50.770;0.250;2024-03-02T06:28:30;6.90;99.90
5962;DHT22;3007;50.770;0.250;2024-03-02T06:30:56;6.80;99.90
5962;DHT22;3007;50.770;0.250;2024-03-02T06:33:40;6.80;99.90
5962;DHT22;3007;50.770;0.250;2024-03-02T06:36:07;6.80;99.90
5962;DHT22;3007;50.770;0.250;2024-03-02T06:38:36;6.80;99.90
5962;DHT22;3007;50.770;0.250;2024-03-02T06:41:10;6.80;99.90
5962;DHT22;3007;50.770;0.250;2024-03-02T06:43:37;6.80;99.90
5962;DHT22;3007;50.770;0.250;2024-03-02T06:46:04;6.80;99.90
5962;DHT22;3007;50.770;0.250;2024-03-02T06:48:34;6.80;99.90
5962;DHT22;3007;50.770;0.250;2024-03-02T06:51:01;6.90;99.90
5962;DHT22;3007;50.770;0.250;2024-03-02T06:53:29;6.90;99.90
5962;DHT22;3007;50.770;0.250;2024-03-02T06:56:00;6.90;99.90
5962;DHT22;3007;50.770;0.250;2024-03-02T06:58:27;6.90;99.90
5962;DHT22;3007;50.770;0.250;2024-03-02T07:00:54;6.90;99.90
5962;DHT22;3007;50.770;0.250;2024-03-02T07:03:21;6.90;99.90
5962;DHT22;3007;50.770;0.250;2024-03-02T07:05:47;7.00;99.90
5962;DHT22;3007;50.770;0.250;2024-03-02T07:08:14;7.00;99.90
5962;DHT22;3007;50.770;0.250;2024-03-02T07:10:41;7.00;99.90
5962;DHT22;3007;50.770;0.250;2024-03-02T07:13:09;7.00;99.90
5962;DHT22;3007;50.770;0.250;2024-03-02T07:15:36;6.90;99.90
5962;DHT22;3007;50.770;0.250;2024-03-02T07:18:25;6.90;99.90
5962;DHT22;3007;50.770;0.250;2024-03-02T07:20:52;6.90;99.90
5962;DHT22;3007;50.770;0.250;2024-03-02T07:23:18;6.90;99.90
5962;DHT22;3007;50.770;0.250;2024-03-02T07:25:48;6.90;99.90
5962;DHT22;3007;50.770;0.250;2024-03-02T07:28:16;6.90;99.90
5962;DHT22;3007;50.770;0.250;2024-03-02T07:30:43;6.90;99.90
5962;DHT22;3007;50.770;0.250;2024-03-02T07:33:10;6.90;99.90
5962;DHT22;3007;50.770;0.250;2024-03-02T07:35:37;6.90;99.90
5962;DHT22;3007;50.770;0.250;2024-03-02T07:38:08;6.90;99.90
5962;DHT22;3007;50.770;0.250;2024-03-02T07:40:35;7.00;99.90
5962;DHT22;3007;50.770;0.250;2024-03-02T07:43:02;7.00;99.90
5962;DHT22;3007;50.770;0.250;2024-03-02T07:45:30;6.50;99.90
5962;DHT22;3007;50.770;0.250;2024-03-02T07:47:57;7.00;99.90
5962;DHT22;3007;50.770;0.250;2024-03-02T07:50:24;7.00;99.90
5962;DHT22;3007;50.770;0.250;2024-03-02T07:52:50;7.10;99.90
5962;DHT22;3007;50.770;0.250;2024-03-02T07:55:17;7.10;99.90
5962;DHT22;3007;50.770;0.250;2024-03-02T07:57:44;7.10;99.90
5962;DHT22;3007;50.770;0.250;2024-03-02T08:00:11;7.10;99.90
5962;DHT22;3007;50.770;0.250;2024-03-02T08:02:41;7.10;99.90
5962;DHT22;3007;50.770;0.250;2024-03-02T08:05:08;7.10;99.90
5962;DHT22;3007;50.770;0.250;2024-03-02T08:07:36;7.10;99.90
5962;DHT22;3007;50.770;0.250;2024-03-02T08:10:03;7.10;99.90
5962;DHT22;3007;50.770;0.250;2024-03-02T08:12:30;7.00;99.90
5962;DHT22;3007;50.770;0.250;2024-03-02T08:14:56;7.00;99.90
5962;DHT22;3007;50.770;0.250;2024-03-02T08:17:23;7.10;99.90
5962;DHT22;3007;50.770;0.250;2024-03-02T08:19:52;7.10;99.90
5962;DHT22;3007;50.770;0.250;2024-03-02T08:22:19;7.10;99.90
5962;DHT22;3007;50.770;0.250;2024-03-02T08:24:45;7.10;99.90
5962;DHT22;3007;50.770;0.250;2024-03-02T08:27:12;7.10;99.90
5962;DHT22;3007;50.770;0.250;2024-03-02T08:29:40;7.20;99.90
5962;DHT22;3007;50.770;0.250;2024-03-02T08:32:07;7.20;99.90
5962;DHT22;3007;50.770;0.250;2024-03-02T08:34:34;7.20;99.90
5962;DHT22;3007;50.770;0.250;2024-03-02T08:37:03;7.20;99.90
5962;DHT22;3007;50.770;0.250;2024-03-02T08:39:30;7.20;99.90
5962;DHT22;3007;50.770;0.250;2024-03-02T08:41:57;7.20;99.90
5962;DHT22;3007;50.770;0.250;2024-03-02T08:44:24;7.20;99.90
5962;DHT22;3007;50.770;0.250;2024-03-02T08:46:51;7.10;99.90
5962;DHT22;3007;50.770;0.250;2024-03-02T08:49:18;7.20;99.90
5962;DHT22;3007;50.770;0.250;2024-03-02T08:51:45;7.10;99.90
5962;DHT22;3007;50.770;0.250;2024-03-02T08:54:21;7.00;99.90
5962;DHT22;3007;50.770;0.250;2024-03-02T08:56:48;7.00;99.90
5962;DHT22;3007;50.770;0.250;2024-03-02T08:59:15;7.00;99.90
5962;DHT22;3007;50.770;0.250;2024-03-02T09:01:41;7.00;99.90
5962;DHT22;3007;50.770;0.250;2024-03-02T09:04:08;7.00;99.90
5962;DHT22;3007;50.770;0.250;2024-03-02T09:06:35;7.10;99.90
5962;DHT22;3007;50.770;0.250;2024-03-02T09:09:02;7.10;99.90
5962;DHT22;3007;50.770;0.250;2024-03-02T09:11:31;7.10;99.90
5962;DHT22;3007;50.770;0.250;2024-03-02T09:13:58;7.20;99.90
5962;DHT22;3007;50.770;0.250;2024-03-02T09:16:25;7.30;99.90
5962;DHT22;3007;50.770;0.250;2024-03-02T09:18:56;7.30;99.90
5962;DHT22;3007;50.770;0.250;2024-03-02T09:21:25;7.30;99.90
5962;DHT22;3007;50.770;0.250;2024-03-02T09:23:52;7.40;99.90
5962;DHT22;3007;50.770;0.250;2024-03-02T09:26:19;7.40;99.90
5962;DHT22;3007;50.770;0.250;2024-03-02T09:28:47;7.50;99.90
5962;DHT22;3007;50.770;0.250;2024-03-02T09:31:14;7.50;99.90
5962;DHT22;3007;50.770;0.250;2024-03-02T09:33:41;7.50;99.90
5962;DHT22;3007;50.770;0.250;2024-03-02T09:36:17;7.50;99.90
5962;DHT22;3007;50.770;0.250;2024-03-02T09:38:44;7.40;99.90
5962;DHT22;3007;50.770;0.250;2024-03-02T09:41:11;7.50;99.90
5962;DHT22;3007;50.770;0.250;2024-03-02T09:43:38;7.50;99.90
5962;DHT22;3007;50.770;0.250;2024-03-02T09:46:08;7.50;99.90
5962;DHT22;3007;50.770;0.250;2024-03-02T09:48:35;7.50;99.90
5962;DHT22;3007;50.770;0.250;2024-03-02T09:51:02;7.60;99.90
5962;DHT22;3007;50.770;0.250;2024-03-02T09:53:32;7.60;99.90
5962;DHT22;3007;50.770;0.250;2024-03-02T09:56:02;7.70;99.90
5962;DHT22;3007;50.770;0.250;2024-03-02T09:58:30;7.70;99.90
5962;DHT22;3007;50.770;0.250;2024-03-02T10:00:57;7.70;99.90
5962;DHT22;3007;50.770;0.250;2024-03-02T10:03:26;7.80;99.90
5962;DHT22;3007;50.770;0.250;2024-03-02T10:05:54;7.90;99.90
5962;DHT22;3007;50.770;0.250;2024-03-02T10:08:20;7.90;99.90
5962;DHT22;3007;50.770;0.250;2024-03-02T10:10:47;7.90;99.90
5962;DHT22;3007;50.770;0.250;2024-03-02T10:13:14;8.00;99.90
5962;DHT22;3007;50.770;0.250;2024-03-02T10:15:42;8.10;99.90
5962;DHT22;3007;50.770;0.250;2024-03-02T10:18:10;8.20;99.90
5962;DHT22;3007;50.770;0.250;2024-03-02T10:20:39;8.40;99.90
5962;DHT22;3007;50.770;0.250;2024-03-02T10:23:13;8.50;99.90
5962;DHT22;3007;50.770;0.250;2024-03-02T10:25:40;8.60;99.90
5962;DHT22;3007;50.770;0.250;2024-03-02T10:28:07;8.60;99.90
5962;DHT22;3007;50.770;0.250;2024-03-02T10:30:35;8.50;99.90
5962;DHT22;3007;50.770;0.250;2024-03-02T10:33:02;8.40;99.90
5962;DHT22;3007;50.770;0.250;2024-03-02T10:35:29;8.40;99.90
5962;DHT22;3007;50.770;0.250;2024-03-02T10:37:59;8.30;99.90
5962;DHT22;3007;50.770;0.250;2024-03-02T10:40:27;8.40;99.90
5962;DHT22;3007;50.770;0.250;2024-03-02T10:42:53;8.40;99.90
5962;DHT22;3007;50.770;0.250;2024-03-02T10:45:21;8.40;99.90
5962;DHT22;3007;50.770;0.250;2024-03-02T10:47:49;8.40;99.90
5962;DHT22;3007;50.770;0.250;2024-03-02T10:50:16;8.40;99.90
5962;DHT22;3007;50.770;0.250;2024-03-02T10:52:44;8.40;99.90
5962;DHT22;3007;50.770;0.250;2024-03-02T10:55:13;8.50;99.90
5962;DHT22;3007;50.770;0.250;2024-03-02T10:57:50;8.60;99.90
5962;DHT22;3007;50.770;0.250;2024-03-02T11:00:19;8.70;99.90
5962;DHT22;3007;50.770;0.250;2024-03-02T11:02:51;8.70;99.90
5962;DHT22;3007;50.770;0.250;2024-03-02T11:05:25;8.80;99.90
5962;DHT22;3007;50.770;0.250;2024-03-02T11:07:54;8.90;99.90
5962;DHT22;3007;50.770;0.250;2024-03-02T11:10:25;9.10;99.90
5962;DHT22;3007;50.770;0.250;2024-03-02T11:12:57;9.10;99.90
5962;DHT22;3007;50.770;0.250;2024-03-02T11:15:27;9.30;99.90
5962;DHT22;3007;50.770;0.250;2024-03-02T11:17:55;9.30;99.90
5962;DHT22;3007;50.770;0.250;2024-03-02T11:20:22;9.30;99.90
5962;DHT22;3007;50.770;0.250;2024-03-02T11:22:50;9.30;99.90
5962;DHT22;3007;50.770;0.250;2024-03-02T11:25:25;9.10;99.90
5962;DHT22;3007;50.770;0.250;2024-03-02T11:28:06;9.00;99.90
5962;DHT22;3007;50.770;0.250;2024-03-02T11:30:51;8.80;99.90
5962;DHT22;3007;50.770;0.250;2024-03-02T11:33:25;8.60;99.90
5962;DHT22;3007;50.770;0.250;2024-03-02T11:35:53;8.40;99.90
5962;DHT22;3007;50.770;0.250;2024-03-02T11:38:20;8.40;99.90
5962;DHT22;3007;50.770;0.250;2024-03-02T11:40:48;8.20;99.90
5962;DHT22;3007;50.770;0.250;2024-03-02T11:43:15;8.10;99.90
5962;DHT22;3007;50.770;0.250;2024-03-02T11:45:43;8.00;99.90
5962;DHT22;3007;50.770;0.250;2024-03-02T11:48:11;7.80;99.90
5962;DHT22;3007;50.770;0.250;2024-03-02T11:50:41;7.70;99.90
5962;DHT22;3007;50.770;0.250;2024-03-02T11:53:10;7.70;99.90
5962;DHT22;3007;50.770;0.250;2024-03-02T11:55:39;7.80;99.90
5962;DHT22;3007;50.770;0.250;2024-03-02T11:58:08;7.80;99.90
5962;DHT22;3007;50.770;0.250;2024-03-02T12:00:35;8.00;99.90
5962;DHT22;3007;50.770;0.250;2024-03-02T12:03:06;8.10;99.90
5962;DHT22;3007;50.770;0.250;2024-03-02T12:05:37;8.10;99.90
5962;DHT22;3007;50.770;0.250;2024-03-02T12:08:05;8.10;99.90
5962;DHT22;3007;50.770;0.250;2024-03-02T12:10:33;8.10;99.90
5962;DHT22;3007;50.770;0.250;2024-03-02T12:13:01;8.20;99.90
5962;DHT22;3007;50.770;0.250;2024-03-02T12:15:31;8.20;99.90
5962;DHT22;3007;50.770;0.250;2024-03-02T12:17:59;8.30;99.90
5962;DHT22;3007;50.770;0.250;2024-03-02T12:20:27;8.30;99.90
5962;DHT22;3007;50.770;0.250;2024-03-02T12:22:55;8.40;99.90
5962;DHT22;3007;50.770;0.250;2024-03-02T12:25:23;8.40;99.90
5962;DHT22;3007;50.770;0.250;2024-03-02T12:27:52;8.50;99.90
5962;DHT22;3007;50.770;0.250;2024-03-02T12:30:20;8.40;99.90
5962;DHT22;3007;50.770;0.250;2024-03-02T12:32:49;8.40;99.90
5962;DHT22;3007;50.770;0.250;2024-03-02T12:35:17;8.90;99.90
5962;DHT22;3007;50.770;0.250;2024-03-02T12:37:44;8.50;99.90
5962;DHT22;3007;50.770;0.250;2024-03-02T12:40:12;9.50;99.90
5962;DHT22;3007;50.770;0.250;2024-03-02T12:42:40;8.80;99.90
5962;DHT22;3007;50.770;0.250;2024-03-02T12:45:08;9.00;99.90
5962;DHT22;3007;50.770;0.250;2024-03-02T12:47:35;9.10;99.90
5962;DHT22;3007;50.770;0.250;2024-03-02T12:50:04;9.10;99.90
5962;DHT22;3007;50.770;0.250;2024-03-02T12:52:31;9.10;99.90
5962;DHT22;3007;50.770;0.250;2024-03-02T12:55:00;9.20;99.90
5962;DHT22;3007;50.770;0.250;2024-03-02T12:57:30;9.20;99.90
5962;DHT22;3007;50.770;0.250;2024-03-02T12:59:58;9.10;99.90
5962;DHT22;3007;50.770;0.250;2024-03-02T13:02:28;9.10;99.90
5962;DHT22;3007;50.770;0.250;2024-03-02T13:04:57;8.80;99.90
5962;DHT22;3007;50.770;0.250;2024-03-02T13:07:26;9.10;99.90
5962;DHT22;3007;50.770;0.250;2024-03-02T13:09:54;9.70;99.90
5962;DHT22;3007;50.770;0.250;2024-03-02T13:12:22;9.00;99.90
5962;DHT22;3007;50.770;0.250;2024-03-02T13:14:50;9.00;99.90
5962;DHT22;3007;50.770;0.250;2024-03-02T13:17:18;9.00;99.90
5962;DHT22;3007;50.770;0.250;2024-03-02T13:19:52;9.10;99.90
5962;DHT22;3007;50.770;0.250;2024-03-02T13:22:19;9.10;99.90
5962;DHT22;3007;50.770;0.250;2024-03-02T13:24:48;9.10;99.90
5962;DHT22;3007;50.770;0.250;2024-03-02T13:27:15;9.20;99.90
5962;DHT22;3007;50.770;0.250;2024-03-02T13:29:45;9.30;99.90
5962;DHT22;3007;50.770;0.250;2024-03-02T13:32:13;9.30;99.90
5962;DHT22;3007;50.770;0.250;2024-03-02T13:34:40;9.40;99.90
5962;DHT22;3007;50.770;0.250;2024-03-02T13:37:07;9.40;99.90
5962;DHT22;3007;50.770;0.250;2024-03-02T13:39:37;9.50;99.90
5962;DHT22;3007;50.770;0.250;2024-03-02T13:42:09;9.50;99.90
5962;DHT22;3007;50.770;0.250;2024-03-02T13:44:38;9.60;99.90
5962;DHT22;3007;50.770;0.250;2024-03-02T13:47:05;9.50;99.90
5962;DHT22;3007;50.770;0.250;2024-03-02T13:49:32;9.50;99.90
5962;DHT22;3007;50.770;0.250;2024-03-02T13:52:03;9.50;99.90
5962;DHT22;3007;50.770;0.250;2024-03-02T13:54:40;9.50;99.90
5962;DHT22;3007;50.770;0.250;2024-03-02T13:57:09;9.70;99.90
5962;DHT22;3007;50.770;0.250;2024-03-02T13:59:37;9.50;99.90
5962;DHT22;3007;50.770;0.250;2024-03-02T14:02:05;9.50;99.90
5962;DHT22;3007;50.770;0.250;2024-03-02T14:04:32;9.50;99.90
5962;DHT22;3007;50.770;0.250;2024-03-02T14:07:00;9.40;99.90
5962;DHT22;3007;50.770;0.250;2024-03-02T14:09:27;9.30;99.90
5962;DHT22;3007;50.770;0.250;2024-03-02T14:11:55;9.30;99.90
5962;DHT22;3007;50.770;0.250;2024-03-02T14:14:24;9.30;99.90
5962;DHT22;3007;50.770;0.250;2024-03-02T14:16:50;9.20;99.90
5962;DHT22;3007;50.770;0.250;2024-03-02T14:19:17;9.10;99.90
5962;DHT22;3007;50.770;0.250;2024-03-02T14:21:44;9.00;99.90
5962;DHT22;3007;50.770;0.250;2024-03-02T14:24:12;9.00;99.90
5962;DHT22;3007;50.770;0.250;2024-03-02T14:26:39;9.00;99.90
5962;DHT22;3007;50.770;0.250;2024-03-02T14:29:07;8.90;99.90
5962;DHT22;3007;50.770;0.250;2024-03-02T14:31:35;8.90;99.90
5962;DHT22;3007;50.770;0.250;2024-03-02T14:34:02;8.90;99.90
5962;DHT22;3007;50.770;0.250;2024-03-02T14:36:29;8.90;99.90
5962;DHT22;3007;50.770;0.250;2024-03-02T14:38:56;8.80;99.90
5962;DHT22;3007;50.770;0.250;2024-03-02T14:41:23;8.80;99.90
5962;DHT22;3007;50.770;0.250;2024-03-02T14:43:50;8.80;99.90
5962;DHT22;3007;50.770;0.250;2024-03-02T14:46:17;8.70;99.90
5962;DHT22;3007;50.770;0.250;2024-03-02T14:48:46;8.70;99.90
5962;DHT22;3007;50.770;0.250;2024-03-02T14:51:13;8.70;99.90
5962;DHT22;3007;50.770;0.250;2024-03-02T14:53:40;8.70;99.90
5962;DHT22;3007;50.770;0.250;2024-03-02T14:56:07;8.60;99.90
5962;DHT22;3007;50.770;0.250;2024-03-02T14:58:33;8.60;99.90
5962;DHT22;3007;50.770;0.250;2024-03-02T15:01:01;8.60;99.90
5962;DHT22;3007;50.770;0.250;2024-03-02T15:03:28;8.60;99.90
5962;DHT22;3007;50.770;0.250;2024-03-02T15:05:56;8.50;99.90
5962;DHT22;3007;50.770;0.250;2024-03-02T15:08:23;8.50;99.90
5962;DHT22;3007;50.770;0.250;2024-03-02T15:10:50;8.50;99.90
5962;DHT22;3007;50.770;0.250;2024-03-02T15:13:17;8.50;99.90
5962;DHT22;3007;50.770;0.250;2024-03-02T15:15:44;8.50;99.90
5962;DHT22;3007;50.770;0.250;2024-03-02T15:18:11;8.50;99.90
5962;DHT22;3007;50.770;0.250;2024-03-02T15:20:38;8.50;99.90
5962;DHT22;3007;50.770;0.250;2024-03-02T15:23:07;8.50;99.90
5962;DHT22;3007;50.770;0.250;2024-03-02T15:25:36;8.40;99.90
5962;DHT22;3007;50.770;0.250;2024-03-02T15:28:04;8.50;99.90
5962;DHT22;3007;50.770;0.250;2024-03-02T15:30:30;8.40;99.90
5962;DHT22;3007;50.770;0.250;2024-03-02T15:32:57;8.50;99.90
5962;DHT22;3007;50.770;0.250;2024-03-02T15:35:27;8.60;99.90
5962;DHT22;3007;50.770;0.250;2024-03-02T15:37:54;8.70;99.90
5962;DHT22;3007;50.770;0.250;2024-03-02T15:40:22;8.70;99.90
5962;DHT22;3007;50.770;0.250;2024-03-02T15:42:49;8.80;99.90
5962;DHT22;3007;50.770;0.250;2024-03-02T15:45:16;8.80;99.90
5962;DHT22;3007;50.770;0.250;2024-03-02T15:47:43;8.70;99.90
5962;DHT22;3007;50.770;0.250;2024-03-02T15:50:10;8.70;99.90
5962;DHT22;3007;50.770;0.250;2024-03-02T15:52:38;8.70;99.90
5962;DHT22;3007;50.770;0.250;2024-03-02T15:55:05;8.70;99.90
5962;DHT22;3007;50.770;0.250;2024-03-02T15:57:34;8.70;99.90
5962;DHT22;3007;50.770;0.250;2024-03-02T16:00:01;8.60;99.90
5962;DHT22;3007;50.770;0.250;2024-03-02T16:02:29;8.60;99.90
5962;DHT22;3007;50.770;0.250;2024-03-02T16:04:56;8.50;99.90
5962;DHT22;3007;50.770;0.250;2024-03-02T16:07:23;8.50;99.90
5962;DHT22;3007;50.770;0.250;2024-03-02T16:09:49;8.50;99.90
5962;DHT22;3007;50.770;0.250;2024-03-02T16:12:16;8.50;99.90
5962;DHT22;3007;50.770;0.250;2024-03-02T16:14:44;8.50;99.90
5962;DHT22;3007;50.770;0.250;2024-03-02T16:17:11;8.60;99.90
5962;DHT22;3007;50.770;0.250;2024-03-02T16:19:38;8.60;99.90
5962;DHT22;3007;50.770;0.250;2024-03-02T16:22:06;8.60;99.90